sensor_id;sensor_type;location;lat;lon;timestamp;P1;durP1;ratioP1;P2;durP2;ratioP2
77191;SDS011;66172;48.526;8.078;2023-05-23T00:01:44;17.83;;;10.10;;
77191;SDS011;66172;48.526;8.078;2023-05-23T00:04:09;17.17;;;9.68;;
77191;SDS011;66172;48.526;8.078;2023-05-23T00:06:41;19.13;;;10.38;;
77191;SDS011;66172;48.526;8.078;2023-05-23T00:09:12;15.70;;;9.55;;
77191;SDS011;66172;48.526;8.078;2023-05-23T00:11:39;18.30;;;10.20;;
77191;SDS011;66172;48.526;8.078;2023-05-23T00:14:15;17.73;;;10.07;;
77191;SDS011;66172;48.526;8.078;2023-05-23T00:16:41;16.67;;;9.65;;
77191;SDS011;66172;48.526;8.078;2023-05-23T00:19:12;16.48;;;9.48;;
77191;SDS011;66172;48.526;8.078;2023-05-23T00:21:45;15.80;;;9.07;;
77191;SDS011;66172;48.526;8.078;2023-05-23T00:24:15;15.77;;;9.02;;
77191;SDS011;66172;48.526;8.078;2023-05-23T00:26:43;15.47;;;9.37;;
77191;SDS011;66172;48.526;8.078;2023-05-23T00:29:10;15.95;;;8.88;;
77191;SDS011;66172;48.526;8.078;2023-05-23T00:31:43;15.30;;;9.52;;
77191;SDS011;66172;48.526;8.078;2023-05-23T00:34:14;13.95;;;8.73;;
77191;SDS011;66172;48.526;8.078;2023-05-23T00:36:42;16.02;;;9.40;;
77191;SDS011;66172;48.526;8.078;2023-05-23T00:39:08;15.73;;;8.93;;
77191;SDS011;66172;48.526;8.078;2023-05-23T00:41:34;14.48;;;9.13;;
77191;SDS011;66172;48.526;8.078;2023-05-23T00:44:00;16.65;;;9.25;;
77191;SDS011;66172;48.526;8.078;2023-05-23T00:46:27;18.73;;;9.63;;
77191;SDS011;66172;48.526;8.078;2023-05-23T00:48:55;16.98;;;9.23;;
77191;SDS011;66172;48.526;8.078;2023-05-23T00:51:21;16.67;;;9.00;;
77191;SDS011;66172;48.526;8.078;2023-05-23T00:53:47;14.20;;;8.73;;
77191;SDS011;66172;48.526;8.078;2023-05-23T00:56:13;15.13;;;9.23;;
77191;SDS011;66172;48.526;8.078;2023-05-23T00:58:39;15.98;;;9.40;;
77191;SDS011;66172;48.526;8.078;2023-05-23T01:01:06;15.23;;;9.57;;
77191;SDS011;66172;48.526;8.078;2023-05-23T01:03:32;15.98;;;8.63;;
77191;SDS011;66172;48.526;8.078;2023-05-23T01:05:58;16.80;;;9.57;;
77191;SDS011;66172;48.526;8.078;2023-05-23T01:08:24;17.50;;;9.93;;
77191;SDS011;66172;48.526;8.078;2023-05-23T01:10:50;16.60;;;9.67;;
77191;SDS011;66172;48.526;8.078;2023-05-23T01:15:57;15.30;;;9.73;;
77191;SDS011;66172;48.526;8.078;2023-05-23T01:18:30;17.50;;;10.18;;
77191;SDS011;66172;48.526;8.078;2023-05-23T01:21:05;15.57;;;9.30;;
77191;SDS011;66172;48.526;8.078;2023-05-23T01:26:42;16.13;;;9.30;;
77191;SDS011;66172;48.526;8.078;2023-05-23T01:32:27;15.88;;;8.90;;
77191;SDS011;66172;48.526;8.078;2023-05-23T01:34:53;18.95;;;9.48;;
77191;SDS011;66172;48.526;8.078;2023-05-23T01:37:20;15.50;;;8.97;;
77191;SDS011;66172;48.526;8.078;2023-05-23T01:39:46;14.65;;;8.73;;
77191;SDS011;66172;48.526;8.078;2023-05-23T01:42:12;16.23;;;9.20;;
77191;SDS011;66172;48.526;8.078;2023-05-23T01:44:38;17.60;;;9.10;;
77191;SDS011;66172;48.526;8.078;2023-05-23T01:47:04;18.93;;;9.07;;
77191;SDS011;66172;48.526;8.078;2023-05-23T01:49:32;18.05;;;10.13;;
77191;SDS011;66172;48.526;8.078;2023-05-23T01:51:59;15.73;;;9.32;;
77191;SDS011;66172;48.526;8.078;2023-05-23T01:54:26;15.73;;;9.35;;
77191;SDS011;66172;48.526;8.078;2023-05-23T01:56:56;17.30;;;9.82;;
77191;SDS011;66172;48.526;8.078;2023-05-23T01:59:22;20.13;;;10.23;;
77191;SDS011;66172;48.526;8.078;2023-05-23T02:01:48;17.27;;;9.68;;
77191;SDS011;66172;48.526;8.078;2023-05-23T02:04:14;17.98;;;9.07;;
77191;SDS011;66172;48.526;8.078;2023-05-23T02:06:40;14.60;;;9.00;;
77191;SDS011;66172;48.526;8.078;2023-05-23T02:09:06;16.30;;;9.43;;
77191;SDS011;66172;48.526;8.078;2023-05-23T02:11:33;16.88;;;9.30;;
77191;SDS011;66172;48.526;8.078;2023-05-23T02:13:59;17.58;;;9.65;;
77191;SDS011;66172;48.526;8.078;2023-05-23T02:16:27;17.02;;;9.48;;
77191;SDS011;66172;48.526;8.078;2023-05-23T02:18:53;16.65;;;10.18;;
77191;SDS011;66172;48.526;8.078;2023-05-23T02:21:23;15.67;;;9.00;;
77191;SDS011;66172;48.526;8.078;2023-05-23T02:23:49;16.00;;;9.50;;
77191;SDS011;66172;48.526;8.078;2023-05-23T02:26:15;15.38;;;9.13;;
77191;SDS011;66172;48.526;8.078;2023-05-23T02:28:42;15.75;;;9.25;;
77191;SDS011;66172;48.526;8.078;2023-05-23T02:31:08;16.83;;;9.53;;
77191;SDS011;66172;48.526;8.078;2023-05-23T02:33:34;15.05;;;8.38;;
77191;SDS011;66172;48.526;8.078;2023-05-23T02:36:00;16.00;;;9.35;;
77191;SDS011;66172;48.526;8.078;2023-05-23T02:38:26;15.52;;;8.98;;
77191;SDS011;66172;48.526;8.078;2023-05-23T02:40:52;15.77;;;9.03;;
77191;SDS011;66172;48.526;8.078;2023-05-23T02:43:18;16.55;;;8.95;;
77191;SDS011;66172;48.526;8.078;2023-05-23T02:45:44;18.23;;;9.40;;
77191;SDS011;66172;48.526;8.078;2023-05-23T02:48:10;16.90;;;9.50;;
77191;SDS011;66172;48.526;8.078;2023-05-23T02:50:36;16.33;;;9.60;;
77191;SDS011;66172;48.526;8.078;2023-05-23T02:53:02;18.27;;;9.10;;
77191;SDS011;66172;48.526;8.078;2023-05-23T02:55:28;15.82;;;9.60;;
77191;SDS011;66172;48.526;8.078;2023-05-23T02:57:56;15.88;;;9.60;;
77191;SDS011;66172;48.526;8.078;2023-05-23T03:00:26;14.90;;;9.32;;
77191;SDS011;66172;48.526;8.078;2023-05-23T03:02:52;15.70;;;9.27;;
77191;SDS011;66172;48.526;8.078;2023-05-23T03:05:18;13.73;;;8.73;;
77191;SDS011;66172;48.526;8.078;2023-05-23T03:07:44;16.27;;;9.43;;
77191;SDS011;66172;48.526;8.078;2023-05-23T03:10:10;16.42;;;8.90;;
77191;SDS011;66172;48.526;8.078;2023-05-23T03:12:36;18.20;;;8.83;;
77191;SDS011;66172;48.526;8.078;2023-05-23T03:15:02;14.25;;;8.75;;
77191;SDS011;66172;48.526;8.078;2023-05-23T03:17:28;15.43;;;9.45;;
77191;SDS011;66172;48.526;8.078;2023-05-23T03:19:54;15.85;;;9.50;;
77191;SDS011;66172;48.526;8.078;2023-05-23T03:22:20;19.47;;;10.00;;
77191;SDS011;66172;48.526;8.078;2023-05-23T03:24:46;17.02;;;9.90;;
77191;SDS011;66172;48.526;8.078;2023-05-23T03:27:12;15.43;;;9.25;;
77191;SDS011;66172;48.526;8.078;2023-05-23T03:29:38;15.73;;;9.60;;
77191;SDS011;66172;48.526;8.078;2023-05-23T03:32:04;17.87;;;10.10;;
77191;SDS011;66172;48.526;8.078;2023-05-23T03:34:31;16.17;;;9.35;;
77191;SDS011;66172;48.526;8.078;2023-05-23T03:36:58;15.68;;;9.23;;
77191;SDS011;66172;48.526;8.078;2023-05-23T03:39:24;16.33;;;9.15;;
77191;SDS011;66172;48.526;8.078;2023-05-23T03:41:50;15.80;;;8.73;;
77191;SDS011;66172;48.526;8.078;2023-05-23T03:44:16;17.02;;;9.52;;
77191;SDS011;66172;48.526;8.078;2023-05-23T03:46:42;18.52;;;9.48;;
77191;SDS011;66172;48.526;8.078;2023-05-23T03:49:08;18.23;;;9.73;;
77191;SDS011;66172;48.526;8.078;2023-05-23T03:51:34;17.17;;;10.17;;
77191;SDS011;66172;48.526;8.078;2023-05-23T03:54:00;16.40;;;9.48;;
77191;SDS011;66172;48.526;8.078;2023-05-23T03:56:26;16.13;;;9.32;;
77191;SDS011;66172;48.526;8.078;2023-05-23T03:58:52;16.20;;;9.07;;
77191;SDS011;66172;48.526;8.078;2023-05-23T04:01:18;15.77;;;9.40;;
77191;SDS011;66172;48.526;8.078;2023-05-23T04:03:43;15.75;;;8.93;;
77191;SDS011;66172;48.526;8.078;2023-05-23T04:06:09;16.60;;;9.30;;
77191;SDS011;66172;48.526;8.078;2023-05-23T04:08:35;16.13;;;9.17;;
77191;SDS011;66172;48.526;8.078;2023-05-23T04:11:01;17.20;;;9.60;;
77191;SDS011;66172;48.526;8.078;2023-05-23T04:13:27;16.45;;;9.25;;
77191;SDS011;66172;48.526;8.078;2023-05-23T04:15:53;20.60;;;10.82;;
77191;SDS011;66172;48.526;8.078;2023-05-23T04:18:22;21.37;;;10.60;;
77191;SDS011;66172;48.526;8.078;2023-05-23T04:20:48;17.88;;;10.60;;
77191;SDS011;66172;48.526;8.078;2023-05-23T04:23:14;19.10;;;10.77;;
77191;SDS011;66172;48.526;8.078;2023-05-23T04:25:40;17.73;;;10.60;;
77191;SDS011;66172;48.526;8.078;2023-05-23T04:28:06;16.37;;;9.97;;
77191;SDS011;66172;48.526;8.078;2023-05-23T04:30:34;17.75;;;9.95;;
77191;SDS011;66172;48.526;8.078;2023-05-23T04:33:00;16.80;;;10.40;;
77191;SDS011;66172;48.526;8.078;2023-05-23T04:35:26;17.15;;;9.85;;
77191;SDS011;66172;48.526;8.078;2023-05-23T04:37:58;16.87;;;9.40;;
77191;SDS011;66172;48.526;8.078;2023-05-23T04:40:24;16.70;;;9.60;;
77191;SDS011;66172;48.526;8.078;2023-05-23T04:42:50;16.48;;;9.88;;
77191;SDS011;66172;48.526;8.078;2023-05-23T04:45:16;18.48;;;9.57;;
77191;SDS011;66172;48.526;8.078;2023-05-23T04:47:44;17.13;;;9.23;;
77191;SDS011;66172;48.526;8.078;2023-05-23T04:50:11;18.63;;;9.63;;
77191;SDS011;66172;48.526;8.078;2023-05-23T04:52:36;16.55;;;9.52;;
77191;SDS011;66172;48.526;8.078;2023-05-23T04:55:02;16.25;;;9.60;;
77191;SDS011;66172;48.526;8.078;2023-05-23T04:57:29;17.83;;;10.00;;
77191;SDS011;66172;48.526;8.078;2023-05-23T04:59:55;14.60;;;9.27;;
77191;SDS011;66172;48.526;8.078;2023-05-23T05:02:21;19.15;;;9.07;;
77191;SDS011;66172;48.526;8.078;2023-05-23T05:04:47;17.02;;;9.23;;
77191;SDS011;66172;48.526;8.078;2023-05-23T05:07:13;17.10;;;9.70;;
77191;SDS011;66172;48.526;8.078;2023-05-23T05:09:40;16.13;;;9.77;;
77191;SDS011;66172;48.526;8.078;2023-05-23T05:12:06;15.65;;;9.43;;
77191;SDS011;66172;48.526;8.078;2023-05-23T05:14:32;18.50;;;9.80;;
77191;SDS011;66172;48.526;8.078;2023-05-23T05:16:58;15.80;;;9.07;;
77191;SDS011;66172;48.526;8.078;2023-05-23T05:19:24;19.17;;;9.95;;
77191;SDS011;66172;48.526;8.078;2023-05-23T05:21:50;17.42;;;10.07;;
77191;SDS011;66172;48.526;8.078;2023-05-23T05:24:16;18.73;;;10.05;;
77191;SDS011;66172;48.526;8.078;2023-05-23T05:26:45;17.83;;;9.97;;
77191;SDS011;66172;48.526;8.078;2023-05-23T05:29:12;19.33;;;9.77;;
77191;SDS011;66172;48.526;8.078;2023-05-23T05:31:38;17.30;;;10.35;;
77191;SDS011;66172;48.526;8.078;2023-05-23T05:34:05;17.88;;;9.90;;
77191;SDS011;66172;48.526;8.078;2023-05-23T05:36:31;16.35;;;9.57;;
77191;SDS011;66172;48.526;8.078;2023-05-23T05:38:57;16.20;;;9.80;;
77191;SDS011;66172;48.526;8.078;2023-05-23T05:41:22;16.73;;;9.82;;
77191;SDS011;66172;48.526;8.078;2023-05-23T05:43:48;19.88;;;10.35;;
77191;SDS011;66172;48.526;8.078;2023-05-23T05:46:14;16.40;;;9.47;;
77191;SDS011;66172;48.526;8.078;2023-05-23T05:48:40;16.33;;;9.83;;
77191;SDS011;66172;48.526;8.078;2023-05-23T05:51:06;17.15;;;9.90;;
77191;SDS011;66172;48.526;8.078;2023-05-23T05:53:32;15.95;;;9.35;;
77191;SDS011;66172;48.526;8.078;2023-05-23T05:55:58;18.73;;;10.57;;
77191;SDS011;66172;48.526;8.078;2023-05-23T05:58:24;17.52;;;11.57;;
77191;SDS011;66172;48.526;8.078;2023-05-23T06:00:50;24.98;;;14.75;;
77191;SDS011;66172;48.526;8.078;2023-05-23T06:03:15;23.37;;;14.60;;
77191;SDS011;66172;48.526;8.078;2023-05-23T06:05:42;21.08;;;12.93;;
77191;SDS011;66172;48.526;8.078;2023-05-23T06:08:08;17.83;;;10.65;;
77191;SDS011;66172;48.526;8.078;2023-05-23T06:10:36;15.10;;;9.70;;
77191;SDS011;66172;48.526;8.078;2023-05-23T06:13:03;16.27;;;10.63;;
77191;SDS011;66172;48.526;8.078;2023-05-23T06:15:29;18.03;;;10.00;;
77191;SDS011;66172;48.526;8.078;2023-05-23T06:17:55;17.35;;;10.32;;
77191;SDS011;66172;48.526;8.078;2023-05-23T06:20:21;16.58;;;10.38;;
77191;SDS011;66172;48.526;8.078;2023-05-23T06:22:47;18.00;;;11.40;;
77191;SDS011;66172;48.526;8.078;2023-05-23T06:25:13;18.83;;;11.53;;
77191;SDS011;66172;48.526;8.078;2023-05-23T06:27:38;18.35;;;12.02;;
77191;SDS011;66172;48.526;8.078;2023-05-23T06:30:05;21.63;;;14.25;;
77191;SDS011;66172;48.526;8.078;2023-05-23T06:32:31;23.13;;;14.73;;
77191;SDS011;66172;48.526;8.078;2023-05-23T06:34:57;21.27;;;15.03;;
77191;SDS011;66172;48.526;8.078;2023-05-23T06:37:23;23.15;;;14.52;;
77191;SDS011;66172;48.526;8.078;2023-05-23T06:39:49;22.15;;;14.82;;
77191;SDS011;66172;48.526;8.078;2023-05-23T06:42:15;22.05;;;14.38;;
77191;SDS011;66172;48.526;8.078;2023-05-23T06:44:41;22.17;;;14.67;;
77191;SDS011;66172;48.526;8.078;2023-05-23T06:47:07;22.50;;;14.40;;
77191;SDS011;66172;48.526;8.078;2023-05-23T06:49:33;22.70;;;15.00;;
77191;SDS011;66172;48.526;8.078;2023-05-23T06:51:59;23.57;;;15.57;;
77191;SDS011;66172;48.526;8.078;2023-05-23T06:54:24;24.58;;;16.08;;
77191;SDS011;66172;48.526;8.078;2023-05-23T06:56:50;27.35;;;16.70;;
77191;SDS011;66172;48.526;8.078;2023-05-23T06:59:16;26.65;;;16.50;;
77191;SDS011;66172;48.526;8.078;2023-05-23T07:01:43;27.33;;;17.03;;
77191;SDS011;66172;48.526;8.078;2023-05-23T07:04:09;27.63;;;17.65;;
77191;SDS011;66172;48.526;8.078;2023-05-23T07:06:36;35.30;;;18.25;;
77191;SDS011;66172;48.526;8.078;2023-05-23T07:09:04;28.65;;;18.73;;
77191;SDS011;66172;48.526;8.078;2023-05-23T07:11:30;32.20;;;18.75;;
77191;SDS011;66172;48.526;8.078;2023-05-23T07:13:55;29.80;;;19.03;;
77191;SDS011;66172;48.526;8.078;2023-05-23T07:16:21;28.85;;;17.45;;
77191;SDS011;66172;48.526;8.078;2023-05-23T07:18:47;29.95;;;18.10;;
77191;SDS011;66172;48.526;8.078;2023-05-23T07:21:13;28.80;;;17.40;;
77191;SDS011;66172;48.526;8.078;2023-05-23T07:23:39;29.55;;;18.60;;
77191;SDS011;66172;48.526;8.078;2023-05-23T07:26:05;30.10;;;17.30;;
77191;SDS011;66172;48.526;8.078;2023-05-23T07:28:34;26.38;;;17.08;;
77191;SDS011;66172;48.526;8.078;2023-05-23T07:31:00;32.07;;;17.87;;
77191;SDS011;66172;48.526;8.078;2023-05-23T07:33:26;28.98;;;16.92;;
77191;SDS011;66172;48.526;8.078;2023-05-23T07:35:52;24.30;;;15.57;;
77191;SDS011;66172;48.526;8.078;2023-05-23T07:38:18;24.13;;;14.40;;
77191;SDS011;66172;48.526;8.078;2023-05-23T07:40:44;24.60;;;15.27;;
77191;SDS011;66172;48.526;8.078;2023-05-23T07:43:10;23.10;;;14.60;;
77191;SDS011;66172;48.526;8.078;2023-05-23T07:45:36;26.58;;;13.88;;
77191;SDS011;66172;48.526;8.078;2023-05-23T07:48:01;21.70;;;12.97;;
77191;SDS011;66172;48.526;8.078;2023-05-23T07:50:27;19.45;;;12.65;;
77191;SDS011;66172;48.526;8.078;2023-05-23T07:52:53;20.02;;;12.32;;
77191;SDS011;66172;48.526;8.078;2023-05-23T07:55:19;19.67;;;12.33;;
77191;SDS011;66172;48.526;8.078;2023-05-23T07:57:45;19.77;;;12.75;;
77191;SDS011;66172;48.526;8.078;2023-05-23T08:00:11;22.70;;;13.32;;
77191;SDS011;66172;48.526;8.078;2023-05-23T08:02:37;17.38;;;11.80;;
77191;SDS011;66172;48.526;8.078;2023-05-23T08:05:03;20.03;;;12.77;;
77191;SDS011;66172;48.526;8.078;2023-05-23T08:07:30;19.55;;;11.73;;
77191;SDS011;66172;48.526;8.078;2023-05-23T08:09:55;17.20;;;11.13;;
77191;SDS011;66172;48.526;8.078;2023-05-23T08:12:21;14.55;;;10.38;;
77191;SDS011;66172;48.526;8.078;2023-05-23T08:14:47;14.93;;;9.20;;
77191;SDS011;66172;48.526;8.078;2023-05-23T08:17:13;16.67;;;10.50;;
77191;SDS011;66172;48.526;8.078;2023-05-23T08:19:39;14.55;;;10.35;;
77191;SDS011;66172;48.526;8.078;2023-05-23T08:22:06;12.60;;;9.48;;
77191;SDS011;66172;48.526;8.078;2023-05-23T08:24:32;17.43;;;9.57;;
77191;SDS011;66172;48.526;8.078;2023-05-23T08:26:58;16.23;;;9.35;;
77191;SDS011;66172;48.526;8.078;2023-05-23T08:29:24;13.45;;;9.25;;
77191;SDS011;66172;48.526;8.078;2023-05-23T08:31:50;15.23;;;9.50;;
77191;SDS011;66172;48.526;8.078;2023-05-23T08:34:16;13.07;;;8.90;;
77191;SDS011;66172;48.526;8.078;2023-05-23T08:36:42;14.82;;;9.38;;
77191;SDS011;66172;48.526;8.078;2023-05-23T08:39:08;14.90;;;9.30;;
77191;SDS011;66172;48.526;8.078;2023-05-23T08:41:34;14.67;;;9.60;;
77191;SDS011;66172;48.526;8.078;2023-05-23T08:44:00;13.70;;;9.32;;
77191;SDS011;66172;48.526;8.078;2023-05-23T08:46:26;14.25;;;9.07;;
77191;SDS011;66172;48.526;8.078;2023-05-23T08:48:53;14.25;;;9.38;;
77191;SDS011;66172;48.526;8.078;2023-05-23T08:51:24;12.73;;;8.67;;
77191;SDS011;66172;48.526;8.078;2023-05-23T08:53:51;12.88;;;8.35;;
77191;SDS011;66172;48.526;8.078;2023-05-23T08:56:18;16.33;;;9.70;;
77191;SDS011;66172;48.526;8.078;2023-05-23T08:58:45;13.73;;;8.75;;
77191;SDS011;66172;48.526;8.078;2023-05-23T09:01:12;12.45;;;8.68;;
77191;SDS011;66172;48.526;8.078;2023-05-23T09:03:39;13.93;;;8.40;;
77191;SDS011;66172;48.526;8.078;2023-05-23T09:06:07;13.60;;;9.77;;
77191;SDS011;66172;48.526;8.078;2023-05-23T09:08:34;13.48;;;8.35;;
77191;SDS011;66172;48.526;8.078;2023-05-23T09:11:01;12.05;;;8.63;;
77191;SDS011;66172;48.526;8.078;2023-05-23T09:13:28;16.58;;;10.52;;
77191;SDS011;66172;48.526;8.078;2023-05-23T09:18:25;14.23;;;9.93;;
77191;SDS011;66172;48.526;8.078;2023-05-23T09:20:51;15.25;;;11.02;;
77191;SDS011;66172;48.526;8.078;2023-05-23T09:23:18;14.18;;;10.43;;
77191;SDS011;66172;48.526;8.078;2023-05-23T09:25:47;13.65;;;10.20;;
77191;SDS011;66172;48.526;8.078;2023-05-23T09:28:13;15.80;;;10.03;;
77191;SDS011;66172;48.526;8.078;2023-05-23T09:30:39;13.55;;;10.10;;
77191;SDS011;66172;48.526;8.078;2023-05-23T09:33:05;14.50;;;9.55;;
77191;SDS011;66172;48.526;8.078;2023-05-23T09:35:31;14.98;;;9.77;;
77191;SDS011;66172;48.526;8.078;2023-05-23T09:37:57;15.50;;;10.03;;
77191;SDS011;66172;48.526;8.078;2023-05-23T09:40:29;14.93;;;9.35;;
77191;SDS011;66172;48.526;8.078;2023-05-23T09:43:02;14.73;;;9.88;;
77191;SDS011;66172;48.526;8.078;2023-05-23T09:45:30;15.05;;;10.30;;
77191;SDS011;66172;48.526;8.078;2023-05-23T09:47:56;15.18;;;9.70;;
77191;SDS011;66172;48.526;8.078;2023-05-23T09:50:23;15.57;;;9.97;;
77191;SDS011;66172;48.526;8.078;2023-05-23T09:52:50;13.05;;;9.32;;
77191;SDS011;66172;48.526;8.078;2023-05-23T09:55:18;13.38;;;9.23;;
77191;SDS011;66172;48.526;8.078;2023-05-23T09:57:44;11.75;;;8.75;;
77191;SDS011;66172;48.526;8.078;2023-05-23T10:00:22;15.90;;;9.88;;
77191;SDS011;66172;48.526;8.078;2023-05-23T10:02:57;14.80;;;9.60;;
77191;SDS011;66172;48.526;8.078;2023-05-23T10:05:33;13.55;;;8.85;;
77191;SDS011;66172;48.526;8.078;2023-05-23T10:08:07;12.57;;;9.30;;
77191;SDS011;66172;48.526;8.078;2023-05-23T10:10:35;12.02;;;8.85;;
77191;SDS011;66172;48.526;8.078;2023-05-23T10:13:27;14.75;;;9.30;;
77191;SDS011;66172;48.526;8.078;2023-05-23T10:15:54;14.77;;;9.10;;
77191;SDS011;66172;48.526;8.078;2023-05-23T10:18:30;15.77;;;8.75;;
77191;SDS011;66172;48.526;8.078;2023-05-23T10:21:02;13.40;;;9.00;;
77191;SDS011;66172;48.526;8.078;2023-05-23T10:23:34;14.57;;;9.65;;
77191;SDS011;66172;48.526;8.078;2023-05-23T10:26:02;12.32;;;8.75;;
77191;SDS011;66172;48.526;8.078;2023-05-23T10:28:30;13.77;;;8.90;;
77191;SDS011;66172;48.526;8.078;2023-05-23T10:30:57;14.05;;;8.88;;
77191;SDS011;66172;48.526;8.078;2023-05-23T10:33:27;14.02;;;8.85;;
77191;SDS011;66172;48.526;8.078;2023-05-23T10:36:06;13.65;;;9.20;;
77191;SDS011;66172;48.526;8.078;2023-05-23T10:38:37;12.63;;;8.75;;
77191;SDS011;66172;48.526;8.078;2023-05-23T10:41:15;13.33;;;9.30;;
77191;SDS011;66172;48.526;8.078;2023-05-23T10:43:50;12.05;;;8.80;;
77191;SDS011;66172;48.526;8.078;2023-05-23T10:46:21;13.80;;;9.00;;
77191;SDS011;66172;48.526;8.078;2023-05-23T10:48:51;13.85;;;9.20;;
77191;SDS011;66172;48.526;8.078;2023-05-23T10:51:21;11.95;;;8.23;;
77191;SDS011;66172;48.526;8.078;2023-05-23T10:53:52;16.70;;;9.10;;
77191;SDS011;66172;48.526;8.078;2023-05-23T10:56:19;12.65;;;8.48;;
77191;SDS011;66172;48.526;8.078;2023-05-23T10:58:54;16.00;;;8.98;;
77191;SDS011;66172;48.526;8.078;2023-05-23T11:01:21;13.40;;;8.27;;
77191;SDS011;66172;48.526;8.078;2023-05-23T11:09:11;11.82;;;7.95;;
77191;SDS011;66172;48.526;8.078;2023-05-23T11:14:19;12.77;;;7.70;;
77191;SDS011;66172;48.526;8.078;2023-05-23T11:16:55;13.40;;;8.10;;
77191;SDS011;66172;48.526;8.078;2023-05-23T11:19:22;11.70;;;7.45;;
77191;SDS011;66172;48.526;8.078;2023-05-23T11:27:30;12.27;;;7.20;;
77191;SDS011;66172;48.526;8.078;2023-05-23T11:29:57;11.98;;;6.75;;
77191;SDS011;66172;48.526;8.078;2023-05-23T11:32:26;10.82;;;7.13;;
77191;SDS011;66172;48.526;8.078;2023-05-23T11:34:53;10.60;;;7.28;;
77191;SDS011;66172;48.526;8.078;2023-05-23T11:37:19;10.73;;;6.95;;
77191;SDS011;66172;48.526;8.078;2023-05-23T11:39:45;13.20;;;7.50;;
77191;SDS011;66172;48.526;8.078;2023-05-23T11:42:11;11.98;;;7.05;;
77191;SDS011;66172;48.526;8.078;2023-05-23T11:44:37;11.18;;;7.35;;
77191;SDS011;66172;48.526;8.078;2023-05-23T11:47:03;15.10;;;7.88;;
77191;SDS011;66172;48.526;8.078;2023-05-23T11:49:33;13.00;;;7.30;;
77191;SDS011;66172;48.526;8.078;2023-05-23T11:52:01;10.15;;;6.40;;
77191;SDS011;66172;48.526;8.078;2023-05-23T11:54:27;11.93;;;6.60;;
77191;SDS011;66172;48.526;8.078;2023-05-23T11:56:53;13.07;;;7.05;;
77191;SDS011;66172;48.526;8.078;2023-05-23T11:59:23;10.90;;;6.18;;
77191;SDS011;66172;48.526;8.078;2023-05-23T12:01:51;11.83;;;6.17;;
77191;SDS011;66172;48.526;8.078;2023-05-23T12:04:17;9.43;;;6.30;;
77191;SDS011;66172;48.526;8.078;2023-05-23T12:06:47;9.77;;;6.32;;
77191;SDS011;66172;48.526;8.078;2023-05-23T12:09:13;11.02;;;6.03;;
77191;SDS011;66172;48.526;8.078;2023-05-23T12:11:40;10.73;;;6.40;;
77191;SDS011;66172;48.526;8.078;2023-05-23T12:14:07;9.60;;;5.90;;
77191;SDS011;66172;48.526;8.078;2023-05-23T12:16:34;12.02;;;6.28;;
77191;SDS011;66172;48.526;8.078;2023-05-23T12:19:01;9.02;;;5.75;;
77191;SDS011;66172;48.526;8.078;2023-05-23T12:26:48;9.43;;;5.60;;
77191;SDS011;66172;48.526;8.078;2023-05-23T12:29:19;11.23;;;5.60;;
77191;SDS011;66172;48.526;8.078;2023-05-23T12:31:58;10.20;;;5.97;;
77191;SDS011;66172;48.526;8.078;2023-05-23T12:34:25;11.57;;;6.32;;
77191;SDS011;66172;48.526;8.078;2023-05-23T12:36:54;9.48;;;5.32;;
77191;SDS011;66172;48.526;8.078;2023-05-23T12:39:24;7.83;;;5.10;;
77191;SDS011;66172;48.526;8.078;2023-05-23T12:41:52;8.75;;;5.50;;
77191;SDS011;66172;48.526;8.078;2023-05-23T12:44:20;8.32;;;5.25;;
77191;SDS011;66172;48.526;8.078;2023-05-23T12:46:46;9.27;;;5.07;;
77191;SDS011;66172;48.526;8.078;2023-05-23T12:49:12;8.70;;;5.05;;
77191;SDS011;66172;48.526;8.078;2023-05-23T12:51:39;8.40;;;4.50;;
77191;SDS011;66172;48.526;8.078;2023-05-23T12:54:05;8.30;;;5.38;;
77191;SDS011;66172;48.526;8.078;2023-05-23T12:56:33;8.43;;;4.57;;
77191;SDS011;66172;48.526;8.078;2023-05-23T12:58:58;8.40;;;5.10;;
77191;SDS011;66172;48.526;8.078;2023-05-23T13:01:26;8.53;;;4.87;;
77191;SDS011;66172;48.526;8.078;2023-05-23T13:03:52;8.52;;;4.97;;
77191;SDS011;66172;48.526;8.078;2023-05-23T13:06:18;8.00;;;4.75;;
77191;SDS011;66172;48.526;8.078;2023-05-23T13:08:44;9.82;;;4.55;;
77191;SDS011;66172;48.526;8.078;2023-05-23T13:11:10;9.00;;;4.80;;
77191;SDS011;66172;48.526;8.078;2023-05-23T13:13:36;7.20;;;4.07;;
77191;SDS011;66172;48.526;8.078;2023-05-23T13:16:02;8.30;;;4.78;;
77191;SDS011;66172;48.526;8.078;2023-05-23T13:18:27;7.80;;;4.70;;
77191;SDS011;66172;48.526;8.078;2023-05-23T13:20:53;18.03;;;5.20;;
77191;SDS011;66172;48.526;8.078;2023-05-23T13:23:19;11.45;;;4.57;;
77191;SDS011;66172;48.526;8.078;2023-05-23T13:25:45;8.02;;;4.10;;
77191;SDS011;66172;48.526;8.078;2023-05-23T13:28:11;7.60;;;4.47;;
77191;SDS011;66172;48.526;8.078;2023-05-23T13:30:37;7.77;;;4.00;;
77191;SDS011;66172;48.526;8.078;2023-05-23T13:33:03;7.63;;;4.60;;
77191;SDS011;66172;48.526;8.078;2023-05-23T13:35:29;7.68;;;4.22;;
77191;SDS011;66172;48.526;8.078;2023-05-23T13:37:55;9.57;;;4.20;;
77191;SDS011;66172;48.526;8.078;2023-05-23T13:40:21;7.13;;;4.23;;
77191;SDS011;66172;48.526;8.078;2023-05-23T13:42:48;6.70;;;4.25;;
77191;SDS011;66172;48.526;8.078;2023-05-23T13:45:17;8.20;;;4.57;;
77191;SDS011;66172;48.526;8.078;2023-05-23T13:47:44;6.50;;;3.83;;
77191;SDS011;66172;48.526;8.078;2023-05-23T13:50:10;7.00;;;4.30;;
77191;SDS011;66172;48.526;8.078;2023-05-23T13:52:37;8.07;;;3.83;;
77191;SDS011;66172;48.526;8.078;2023-05-23T13:55:03;11.02;;;3.90;;
77191;SDS011;66172;48.526;8.078;2023-05-23T13:57:30;7.03;;;3.90;;
77191;SDS011;66172;48.526;8.078;2023-05-23T13:59:56;9.18;;;3.83;;
77191;SDS011;66172;48.526;8.078;2023-05-23T14:02:22;8.17;;;4.20;;
77191;SDS011;66172;48.526;8.078;2023-05-23T14:04:48;7.65;;;3.80;;
77191;SDS011;66172;48.526;8.078;2023-05-23T14:07:14;7.13;;;3.92;;
77191;SDS011;66172;48.526;8.078;2023-05-23T14:09:42;6.95;;;3.63;;
77191;SDS011;66172;48.526;8.078;2023-05-23T14:12:08;6.13;;;3.90;;
77191;SDS011;66172;48.526;8.078;2023-05-23T14:14:34;8.80;;;3.92;;
77191;SDS011;66172;48.526;8.078;2023-05-23T14:17:00;7.47;;;4.00;;
77191;SDS011;66172;48.526;8.078;2023-05-23T14:19:26;6.45;;;3.88;;
77191;SDS011;66172;48.526;8.078;2023-05-23T14:21:52;6.90;;;3.43;;
77191;SDS011;66172;48.526;8.078;2023-05-23T14:24:18;6.75;;;3.55;;
77191;SDS011;66172;48.526;8.078;2023-05-23T14:26:43;6.10;;;3.33;;
77191;SDS011;66172;48.526;8.078;2023-05-23T14:29:11;6.68;;;3.28;;
77191;SDS011;66172;48.526;8.078;2023-05-23T14:31:37;5.63;;;3.20;;
77191;SDS011;66172;48.526;8.078;2023-05-23T14:34:03;5.85;;;3.30;;
77191;SDS011;66172;48.526;8.078;2023-05-23T14:36:29;6.20;;;3.15;;
77191;SDS011;66172;48.526;8.078;2023-05-23T14:38:56;5.70;;;3.05;;
77191;SDS011;66172;48.526;8.078;2023-05-23T14:41:22;6.67;;;3.37;;
77191;SDS011;66172;48.526;8.078;2023-05-23T14:43:47;5.35;;;3.03;;
77191;SDS011;66172;48.526;8.078;2023-05-23T14:46:13;6.35;;;3.00;;
77191;SDS011;66172;48.526;8.078;2023-05-23T14:48:41;6.37;;;2.97;;
77191;SDS011;66172;48.526;8.078;2023-05-23T14:51:07;5.13;;;2.83;;
77191;SDS011;66172;48.526;8.078;2023-05-23T14:53:33;8.38;;;3.10;;
77191;SDS011;66172;48.526;8.078;2023-05-23T14:55:59;5.82;;;3.25;;
77191;SDS011;66172;48.526;8.078;2023-05-23T14:58:25;7.37;;;2.80;;
77191;SDS011;66172;48.526;8.078;2023-05-23T15:00:51;5.25;;;2.70;;
77191;SDS011;66172;48.526;8.078;2023-05-23T15:03:17;5.18;;;2.88;;